Terminal Aerodrome Forecast
Issued by NWS

Home | Current Version | Previous Version | Graphics & Text | Print | Product List | Glossary On
Versions: 1 2 3 4 5 6 7 8 9 10 11 12 13 14 15 16 17 18 19
570
FTUS43 KMPX 081131
TAFAXN
TAF
KAXN 081131Z 0812/0912 31017G25KT 5SM -SN OVC015
     FM081600 32016G23KT P6SM OVC015
     FM090100 31011KT P6SM BKN020=

USA.gov is the U.S. government's official web portal to all federal, state and local government web resources and services.